createdAt,value
2017-09-25T00:01:45.191Z,84.20
2017-09-25T00:04:15.937Z,84.10
2017-09-25T00:06:45.347Z,84.00
2017-09-25T00:09:12.855Z,83.70
2017-09-25T00:11:40.356Z,84.40
2017-09-25T00:14:15.040Z,83.50
2017-09-25T00:16:45.904Z,83.60
2017-09-25T00:19:13.484Z,83.40
2017-09-25T00:21:40.980Z,83.50
2017-09-25T00:24:15.060Z,83.50
2017-09-25T00:26:42.711Z,83.60
2017-09-25T00:29:10.226Z,83.60
2017-09-25T00:31:37.743Z,83.60
2017-09-25T00:34:05.257Z,83.60
2017-09-25T00:36:32.871Z,83.70
2017-09-25T00:39:06.267Z,83.80
2017-09-25T00:41:34.555Z,83.90
2017-09-25T00:44:02.826Z,84.10
2017-09-25T00:46:31.082Z,84.20
2017-09-25T00:49:05.159Z,84.10
2017-09-25T00:51:32.662Z,84.20
2017-09-25T00:54:06.375Z,84.40
2017-09-25T00:56:45.317Z,85.50
2017-09-25T00:59:33.695Z,85.40
2017-09-25T01:02:13.026Z,85.90
2017-09-25T01:05:05.227Z,86.40
2017-09-25T01:07:33.519Z,87.00
2017-09-25T01:10:01.020Z,86.90
2017-09-25T01:12:28.523Z,87.00
2017-09-25T01:15:05.294Z,86.80
2017-09-25T01:17:34.975Z,87.60
2017-09-25T01:20:06.163Z,86.60
2017-09-25T01:22:34.508Z,86.70
2017-09-25T01:25:05.025Z,86.90
2017-09-25T01:27:35.865Z,87.90
2017-09-25T01:30:03.432Z,87.20
2017-09-25T01:32:31.226Z,87.40
2017-09-25T01:35:06.106Z,87.70
2017-09-25T01:37:33.918Z,87.50
2017-09-25T01:40:02.189Z,88.30
2017-09-25T01:42:37.386Z,88.60
2017-09-25T01:45:14.971Z,88.60
2017-09-25T01:47:46.295Z,88.90
2017-09-25T01:50:14.707Z,88.90
2017-09-25T01:52:42.203Z,88.80
2017-09-25T01:55:09.806Z,88.60
2017-09-25T01:57:44.487Z,88.50
2017-09-25T02:00:15.638Z,88.40
2017-09-25T02:02:43.146Z,88.30
2017-09-25T02:05:11.092Z,88.10
2017-09-25T02:07:39.472Z,88.00
2017-09-25T02:10:14.403Z,87.90
2017-09-25T02:12:42.650Z,87.80
2017-09-25T02:15:10.918Z,87.90
2017-09-25T02:17:39.271Z,87.70
2017-09-25T02:20:06.770Z,87.80
2017-09-25T02:22:44.723Z,87.60
2017-09-25T02:25:15.642Z,87.50
2017-09-25T02:27:46.772Z,87.70
2017-09-25T02:30:15.068Z,88.20
2017-09-25T02:32:45.667Z,88.70
2017-09-25T02:35:15.376Z,89.60
2017-09-25T02:37:45.075Z,89.70
2017-09-25T02:40:12.852Z,89.60
2017-09-25T02:42:44.549Z,89.90
2017-09-25T02:45:12.055Z,89.90
2017-09-25T02:47:45.671Z,90.00
2017-09-25T02:50:13.930Z,90.00
2017-09-25T02:52:41.978Z,90.00
2017-09-25T02:55:09.475Z,90.10
2017-09-25T02:57:37.754Z,90.00
2017-09-25T03:00:14.571Z,89.70
2017-09-25T03:02:42.068Z,89.60
2017-09-25T03:05:09.852Z,89.40
2017-09-25T03:07:44.228Z,88.20
2017-09-25T03:10:12.051Z,88.20
2017-09-25T03:12:40.307Z,87.70
2017-09-25T03:15:08.566Z,87.60
2017-09-25T03:17:44.210Z,87.50
2017-09-25T03:20:15.134Z,87.70
2017-09-25T03:22:46.249Z,87.60
2017-09-25T03:25:15.069Z,87.60
2017-09-25T03:27:42.571Z,87.70
2017-09-25T03:30:14.720Z,89.00
2017-09-25T03:32:45.267Z,88.10
2017-09-25T03:35:14.878Z,88.20
2017-09-25T03:37:43.150Z,88.10
2017-09-25T03:40:11.737Z,88.10
2017-09-25T03:42:40.002Z,88.10
2017-09-25T03:45:14.521Z,87.90
2017-09-25T03:47:42.021Z,88.00
2017-09-25T03:50:16.400Z,88.10
2017-09-25T03:52:44.665Z,87.90
2017-09-25T03:55:15.682Z,87.80
2017-09-25T03:57:46.201Z,88.00
2017-09-25T04:00:13.763Z,87.90
2017-09-25T04:02:41.590Z,87.80
2017-09-25T04:05:09.841Z,87.60
2017-09-25T04:07:37.327Z,87.50
2017-09-25T04:10:15.987Z,87.50
2017-09-25T04:12:43.492Z,87.50
2017-09-25T04:15:15.782Z,87.80
2017-09-25T04:17:45.115Z,87.80
2017-09-25T04:20:12.602Z,87.90
2017-09-25T04:22:45.897Z,88.00
2017-09-25T04:25:13.400Z,88.10
2017-09-25T04:27:40.915Z,88.60
2017-09-25T04:30:08.415Z,87.80
2017-09-25T04:32:37.077Z,87.80
2017-09-25T04:35:15.525Z,87.80
2017-09-25T04:37:43.383Z,87.80
2017-09-25T04:40:14.595Z,87.70
2017-09-25T04:42:45.655Z,87.80
2017-09-25T04:45:14.907Z,89.10
2017-09-25T04:47:45.880Z,89.00
2017-09-25T04:50:14.471Z,89.10
2017-09-25T04:52:41.951Z,89.20
2017-09-25T04:55:15.591Z,89.40
2017-09-25T04:57:46.454Z,89.50
2017-09-25T05:00:14.975Z,89.90
2017-09-25T05:02:45.488Z,90.10
2017-09-25T05:05:15.408Z,90.30
2017-09-25T05:07:44.500Z,90.40
2017-09-25T05:10:16.482Z,90.50
2017-09-25T05:12:43.963Z,90.50
2017-09-25T05:15:11.458Z,90.60
2017-09-25T05:17:44.995Z,90.60
2017-09-25T05:20:12.489Z,90.70
2017-09-25T05:22:39.985Z,90.60
2017-09-25T05:25:14.947Z,90.60
2017-09-25T05:27:42.454Z,90.60
2017-09-25T05:30:16.141Z,90.70
2017-09-25T05:32:45.064Z,91.00
2017-09-25T05:35:13.323Z,90.90
2017-09-25T05:37:47.322Z,90.90
2017-09-25T05:40:24.735Z,90.80
2017-09-25T05:42:52.519Z,90.90
2017-09-25T05:45:26.862Z,90.80
2017-09-25T05:47:54.707Z,90.80
2017-09-25T05:50:25.909Z,90.70
2017-09-25T05:52:54.942Z,90.70
2017-09-25T05:55:26.323Z,90.20
2017-09-25T05:57:53.873Z,90.60
2017-09-25T06:00:25.866Z,89.80
2017-09-25T06:02:53.383Z,89.70
2017-09-25T06:05:25.188Z,89.40
2017-09-25T06:07:52.860Z,89.30
2017-09-25T06:10:20.671Z,89.10
2017-09-25T06:12:49.094Z,88.90
2017-09-25T06:15:24.736Z,88.80
2017-09-25T06:17:55.282Z,88.90
2017-09-25T06:20:22.781Z,88.90
2017-09-25T06:22:51.063Z,88.70
2017-09-25T06:25:19.320Z,88.80
2017-09-25T06:27:47.924Z,88.70
2017-09-25T06:30:24.421Z,88.60
2017-09-25T06:32:52.263Z,88.60
2017-09-25T06:35:26.679Z,88.30
2017-09-25T06:37:55.270Z,87.90
2017-09-25T06:40:23.518Z,87.60
2017-09-25T06:42:51.793Z,87.30
2017-09-25T06:45:20.082Z,86.60
2017-09-25T06:47:48.353Z,87.10
2017-09-25T06:50:16.961Z,87.20
2017-09-25T06:52:55.079Z,87.20
2017-09-25T06:55:22.918Z,87.20
2017-09-25T06:57:57.142Z,87.10
2017-09-25T07:00:25.732Z,87.40
2017-09-25T07:02:54.842Z,87.50
2017-09-25T07:05:25.774Z,87.40
2017-09-25T07:07:53.279Z,87.70
2017-09-25T07:10:20.772Z,87.30
2017-09-25T07:12:49.035Z,84.40
2017-09-25T07:15:24.751Z,81.80
2017-09-25T07:17:52.267Z,81.70
2017-09-25T07:20:26.060Z,78.50
2017-09-25T07:22:54.382Z,74.00
2017-09-25T07:25:21.871Z,73.80
2017-09-25T07:27:49.877Z,71.90
2017-09-25T07:30:18.159Z,69.50
2017-09-25T07:32:45.647Z,68.60
2017-09-25T07:35:13.147Z,67.60
2017-09-25T07:37:40.723Z,66.00
2017-09-25T07:40:08.991Z,62.90
2017-09-25T07:42:36.475Z,62.70
2017-09-25T07:45:05.266Z,60.40
2017-09-25T07:47:32.883Z,60.20
2017-09-25T07:50:00.371Z,59.30
2017-09-25T07:52:35.133Z,58.50
2017-09-25T07:55:02.648Z,58.50
2017-09-25T07:57:30.918Z,57.80
2017-09-25T07:59:59.196Z,57.80
2017-09-25T08:02:34.810Z,57.10
2017-09-25T08:05:02.308Z,56.30
2017-09-25T08:07:30.173Z,55.00
2017-09-25T08:10:05.017Z,53.60
2017-09-25T08:12:33.602Z,52.60
2017-09-25T08:15:05.020Z,51.90
2017-09-25T08:17:33.439Z,51.80
2017-09-25T08:20:05.253Z,50.90
2017-09-25T08:22:33.883Z,49.80
2017-09-25T08:25:05.832Z,49.30
2017-09-25T08:27:35.554Z,48.50
2017-09-25T08:30:04.831Z,47.50
2017-09-25T08:32:32.689Z,47.40
2017-09-25T08:35:00.666Z,46.90
2017-09-25T08:37:34.435Z,46.10
2017-09-25T08:40:05.557Z,46.30
2017-09-25T08:42:36.332Z,46.00
2017-09-25T08:45:03.836Z,45.60
2017-09-25T08:47:31.347Z,44.90
2017-09-25T08:49:59.927Z,43.90
2017-09-25T08:52:34.526Z,43.60
2017-09-25T08:55:02.390Z,43.60
2017-09-25T08:57:35.763Z,42.80
2017-09-25T09:00:05.033Z,41.60
2017-09-25T09:02:36.407Z,41.80
2017-09-25T09:05:05.489Z,42.40
2017-09-25T09:07:32.995Z,42.50
2017-09-25T09:10:00.571Z,42.80
2017-09-25T09:12:35.382Z,42.10
2017-09-25T09:15:06.294Z,41.30
2017-09-25T09:17:35.260Z,41.40
2017-09-25T09:20:05.835Z,39.90
2017-09-25T09:22:34.896Z,40.30
2017-09-25T09:25:05.520Z,40.40
2017-09-25T09:27:36.756Z,39.80
2017-09-25T09:30:04.998Z,38.10
2017-09-25T09:32:32.504Z,38.00
2017-09-25T09:35:00.043Z,38.60
2017-09-25T09:37:28.314Z,38.80
2017-09-25T09:40:04.537Z,38.40
2017-09-25T09:42:35.635Z,38.30
2017-09-25T09:45:03.495Z,37.00
2017-09-25T09:47:31.822Z,37.00
2017-09-25T09:49:59.319Z,36.90
2017-09-25T09:52:34.859Z,36.30
2017-09-25T09:55:02.351Z,36.20
2017-09-25T09:57:29.853Z,35.70
2017-09-25T10:00:04.639Z,34.20
2017-09-25T10:02:35.742Z,35.20
2017-09-25T10:05:06.145Z,35.00
2017-09-25T10:07:34.282Z,34.50
2017-09-25T10:10:01.782Z,33.80
2017-09-25T10:12:29.259Z,32.90
2017-09-25T10:15:04.184Z,33.10
2017-09-25T10:17:31.699Z,32.90
2017-09-25T10:19:59.869Z,33.00
2017-09-25T10:22:27.574Z,32.70
2017-09-25T10:24:55.177Z,32.60
2017-09-25T10:27:23.518Z,32.00
2017-09-25T10:29:51.023Z,31.80
2017-09-25T10:32:24.203Z,32.70
2017-09-25T10:34:51.745Z,32.80
2017-09-25T10:37:26.862Z,31.10
2017-09-25T10:39:55.356Z,31.00
2017-09-25T10:42:22.845Z,30.00
2017-09-25T10:44:50.450Z,30.00
2017-09-25T10:47:17.935Z,29.90
2017-09-25T10:49:45.451Z,31.30
2017-09-25T10:52:14.566Z,30.70
2017-09-25T10:54:42.067Z,30.80
2017-09-25T10:57:16.710Z,30.50
2017-09-25T10:59:44.554Z,30.40
2017-09-25T11:02:16.413Z,30.50
2017-09-25T11:04:45.107Z,30.70
2017-09-25T11:07:13.396Z,30.60
2017-09-25T11:09:41.767Z,30.40
2017-09-25T11:12:15.565Z,30.20
2017-09-25T11:14:43.842Z,29.70
2017-09-25T11:17:12.213Z,29.50
2017-09-25T11:19:40.491Z,28.90
2017-09-25T11:22:09.185Z,28.40
2017-09-25T11:24:37.451Z,28.00
2017-09-25T11:27:15.709Z,28.00
2017-09-25T11:29:46.372Z,27.60
2017-09-25T11:32:25.088Z,29.40
2017-09-25T11:34:52.637Z,29.40
2017-09-25T11:37:20.589Z,29.80
2017-09-25T11:39:54.791Z,29.50
2017-09-25T11:42:25.862Z,29.40
2017-09-25T11:44:54.945Z,30.10
2017-09-25T11:47:26.303Z,31.10
2017-09-25T11:49:53.836Z,33.20
2017-09-25T11:52:21.348Z,33.20
2017-09-25T11:54:48.875Z,33.10
2017-09-25T11:57:26.058Z,32.00
2017-09-25T11:59:55.188Z,32.00
2017-09-25T12:02:22.713Z,32.60
2017-09-25T12:04:56.720Z,33.10
2017-09-25T12:07:25.683Z,33.50
2017-09-25T12:09:53.944Z,36.50
2017-09-25T12:12:26.149Z,38.00
2017-09-25T12:14:55.169Z,38.00
2017-09-25T12:17:22.673Z,40.40
2017-09-25T12:19:50.958Z,42.40
2017-09-25T12:22:19.289Z,42.80
2017-09-25T12:24:54.667Z,42.50
2017-09-25T12:27:24.666Z,42.90
2017-09-25T12:29:55.457Z,42.80
2017-09-25T12:32:22.955Z,42.60
2017-09-25T12:34:50.531Z,43.50
2017-09-25T12:37:25.114Z,44.80
2017-09-25T12:39:53.435Z,45.10
2017-09-25T12:42:21.744Z,45.80
2017-09-25T12:44:49.270Z,45.80
2017-09-25T12:47:17.556Z,45.60
2017-09-25T12:49:54.272Z,45.60
2017-09-25T12:52:22.066Z,45.50
2017-09-25T12:54:49.686Z,45.40
2017-09-25T12:57:24.734Z,45.30
2017-09-25T12:59:52.223Z,44.80
2017-09-25T13:02:19.942Z,44.80
2017-09-25T13:04:54.698Z,44.80
2017-09-25T13:07:22.198Z,44.50
2017-09-25T13:09:50.544Z,45.40
2017-09-25T13:12:18.027Z,45.30
2017-09-25T13:14:46.143Z,45.40
2017-09-25T13:17:14.977Z,45.70
2017-09-25T13:19:42.575Z,46.10
2017-09-25T13:22:17.021Z,46.90
2017-09-25T13:24:44.539Z,46.80
2017-09-25T13:27:13.233Z,47.10
2017-09-25T13:29:41.499Z,47.20
2017-09-25T13:32:09.839Z,48.20
2017-09-25T13:34:44.971Z,47.50
2017-09-25T13:37:12.740Z,47.90
2017-09-25T13:39:46.457Z,48.50
2017-09-25T13:42:15.091Z,48.40
2017-09-25T13:44:42.613Z,48.30
2017-09-25T13:47:16.058Z,48.90
2017-09-25T13:49:44.871Z,48.90
2017-09-25T13:52:16.448Z,49.00
2017-09-25T13:54:43.930Z,48.80
2017-09-25T13:57:12.191Z,49.20
2017-09-25T14:04:45.791Z,49.80
2017-09-25T14:07:15.250Z,49.60
2017-09-25T14:09:44.816Z,49.80
2017-09-25T14:12:15.902Z,49.70
2017-09-25T14:14:44.147Z,50.20
2017-09-25T14:17:11.631Z,50.10
2017-09-25T14:19:46.148Z,50.50
2017-09-25T14:22:13.619Z,50.50
2017-09-25T14:24:44.794Z,50.50
2017-09-25T14:27:12.283Z,49.50
2017-09-25T14:29:46.085Z,49.60
2017-09-25T14:32:14.340Z,49.10
2017-09-25T14:34:41.821Z,49.10
2017-09-25T14:37:15.703Z,49.20
2017-09-25T14:39:43.190Z,48.70
2017-09-25T14:42:16.834Z,49.20
2017-09-25T14:44:44.319Z,49.90
2017-09-25T14:47:15.534Z,50.10
2017-09-25T14:49:43.049Z,50.00
2017-09-25T14:52:17.442Z,50.20
2017-09-25T14:54:54.615Z,50.40
2017-09-25T14:57:25.839Z,51.20
2017-09-25T14:59:55.027Z,51.50
2017-09-25T15:02:24.586Z,51.60
2017-09-25T15:04:52.083Z,51.60
2017-09-25T15:07:25.591Z,51.90
2017-09-25T15:09:54.191Z,52.10
2017-09-25T15:12:25.498Z,52.30
2017-09-25T15:14:56.778Z,52.20
2017-09-25T15:17:34.919Z,52.80
2017-09-25T15:20:02.723Z,52.70
2017-09-25T15:22:36.652Z,53.30
2017-09-25T15:25:04.471Z,53.20
2017-09-25T15:27:35.192Z,53.30
2017-09-25T15:30:06.271Z,53.40
2017-09-25T15:32:34.634Z,53.80
2017-09-25T15:35:02.507Z,53.70
2017-09-25T15:37:30.778Z,54.50
2017-09-25T15:39:58.285Z,54.40
2017-09-25T15:42:34.133Z,55.00
2017-09-25T15:45:05.133Z,55.20
2017-09-25T15:47:32.626Z,55.10
2017-09-25T15:50:05.967Z,55.30
2017-09-25T15:52:33.734Z,55.30
2017-09-25T15:55:01.218Z,55.30
2017-09-25T15:57:29.482Z,55.50
2017-09-25T15:59:56.979Z,55.50
2017-09-25T16:02:24.525Z,55.60
2017-09-25T16:04:52.789Z,55.30
2017-09-25T16:07:21.038Z,54.90
2017-09-25T16:09:48.842Z,54.90
2017-09-25T16:12:16.331Z,54.90
2017-09-25T16:14:44.966Z,55.00
2017-09-25T16:17:14.778Z,54.80
2017-09-25T16:19:44.659Z,55.00
2017-09-25T16:22:12.432Z,54.90
2017-09-25T16:24:39.934Z,55.30
2017-09-25T16:27:08.190Z,55.90
2017-09-25T16:29:35.679Z,55.90
2017-09-25T16:32:04.690Z,56.30
2017-09-25T16:34:35.707Z,56.80
2017-09-25T16:37:03.215Z,56.90
2017-09-25T16:39:36.767Z,57.20
2017-09-25T16:42:04.496Z,57.60
2017-09-25T16:44:35.234Z,57.80
2017-09-25T16:47:06.354Z,58.00
2017-09-25T16:49:34.708Z,58.00
2017-09-25T16:52:02.211Z,57.90
2017-09-25T16:54:30.498Z,58.20
2017-09-25T16:56:59.052Z,58.30
2017-09-25T16:59:26.535Z,58.20
2017-09-25T17:01:54.043Z,58.50
2017-09-25T17:04:21.542Z,58.70
2017-09-25T17:06:49.035Z,58.90
2017-09-25T17:09:17.287Z,59.40
2017-09-25T17:11:45.536Z,59.60
2017-09-25T17:14:13.026Z,59.50
2017-09-25T17:16:41.347Z,60.40
2017-09-25T17:19:15.213Z,60.20
2017-09-25T17:21:45.207Z,61.20
2017-09-25T17:24:12.711Z,61.00
2017-09-25T17:26:47.633Z,61.50
2017-09-25T17:29:16.776Z,62.50
2017-09-25T17:31:44.871Z,62.40
2017-09-25T17:34:16.178Z,63.00
2017-09-25T17:36:43.842Z,63.40
2017-09-25T17:39:14.812Z,63.90
2017-09-25T17:41:42.299Z,64.80
2017-09-25T17:44:10.577Z,65.20
2017-09-25T17:46:45.243Z,65.50
2017-09-25T17:49:13.067Z,65.50
2017-09-25T17:51:44.801Z,66.10
2017-09-25T17:54:16.091Z,66.10
2017-09-25T17:56:45.179Z,66.40
2017-09-25T17:59:14.979Z,67.10
2017-09-25T18:01:44.006Z,67.90
2017-09-25T18:04:14.526Z,67.90
2017-09-25T18:06:45.270Z,67.80
2017-09-25T18:09:16.003Z,67.70
2017-09-25T18:11:47.955Z,68.10
2017-09-25T18:14:15.509Z,68.30
2017-09-25T18:16:46.166Z,68.80
2017-09-25T18:19:14.782Z,69.30
2017-09-25T18:21:45.523Z,69.40
2017-09-25T18:24:13.012Z,69.60
2017-09-25T18:26:44.821Z,70.00
2017-09-25T18:29:13.371Z,70.30
2017-09-25T18:31:40.855Z,70.20
2017-09-25T18:34:15.456Z,70.80
2017-09-25T18:36:42.944Z,71.00
2017-09-25T18:39:10.427Z,71.40
2017-09-25T18:41:37.926Z,71.70
2017-09-25T18:44:05.414Z,72.00
2017-09-25T18:46:33.174Z,72.30
2017-09-25T18:49:00.673Z,72.50
2017-09-25T18:51:34.590Z,72.80
2017-09-25T18:54:02.843Z,73.00
2017-09-25T18:56:30.340Z,72.90
2017-09-25T18:59:04.885Z,73.50
2017-09-25T19:01:32.373Z,73.40
2017-09-25T19:04:00.124Z,73.60
2017-09-25T19:06:34.183Z,73.90
2017-09-25T19:09:01.964Z,74.00
2017-09-25T19:11:35.974Z,74.40
2017-09-25T19:14:04.556Z,74.60
2017-09-25T19:16:32.820Z,74.80
2017-09-25T19:19:01.071Z,75.10
2017-09-25T19:21:28.582Z,75.00
2017-09-25T19:24:04.419Z,75.30
2017-09-25T19:26:36.597Z,75.70
2017-09-25T19:29:14.592Z,75.90
2017-09-25T19:31:46.763Z,76.00
2017-09-25T19:34:24.800Z,75.90
2017-09-25T19:36:56.527Z,75.80
2017-09-25T19:39:24.787Z,76.70
2017-09-25T19:41:53.039Z,75.90
2017-09-25T19:44:20.565Z,75.70
2017-09-25T19:46:54.424Z,75.80
2017-09-25T19:49:26.576Z,75.80
2017-09-25T19:51:54.073Z,75.80
2017-09-25T19:54:23.935Z,76.10
2017-09-25T19:56:52.664Z,76.70
2017-09-25T19:59:21.253Z,75.80
2017-09-25T20:01:55.984Z,75.90
2017-09-25T20:04:24.246Z,75.80
2017-09-25T20:06:52.507Z,75.90
2017-09-25T20:09:20.006Z,75.70
2017-09-25T20:11:54.351Z,76.00
2017-09-25T20:14:40.790Z,76.40
2017-09-25T20:17:09.686Z,76.50
2017-09-25T20:19:45.181Z,76.60
2017-09-25T20:22:12.668Z,76.70
2017-09-25T20:24:40.147Z,76.90
2017-09-25T20:27:15.037Z,77.00
2017-09-25T20:29:42.528Z,77.10
2017-09-25T20:32:10.015Z,77.20
2017-09-25T20:34:45.088Z,77.80
2017-09-25T20:37:12.586Z,77.70
2017-09-25T20:39:40.066Z,78.10
2017-09-25T20:42:28.040Z,79.00
2017-09-25T20:44:55.543Z,78.90
2017-09-25T20:47:23.057Z,79.10
2017-09-25T20:49:56.911Z,79.20
2017-09-25T20:52:25.135Z,79.10
2017-09-25T20:54:56.340Z,78.90
2017-09-25T20:57:24.973Z,79.10
2017-09-25T20:59:52.454Z,79.00
2017-09-25T21:02:20.712Z,79.20
2017-09-25T21:04:55.130Z,79.20
2017-09-25T21:07:22.611Z,79.40
2017-09-25T21:09:56.550Z,79.50
2017-09-25T21:12:35.121Z,79.70
2017-09-25T21:15:02.649Z,79.70
2017-09-25T21:17:30.155Z,80.00
2017-09-25T21:20:05.146Z,80.50
2017-09-25T21:22:32.639Z,80.90
2017-09-25T21:25:00.129Z,81.10
2017-09-25T21:27:28.195Z,81.10
2017-09-25T21:29:55.674Z,81.10
2017-09-25T21:32:24.263Z,81.30
2017-09-25T21:34:52.517Z,81.00
2017-09-25T21:37:27.086Z,81.10
2017-09-25T21:39:55.174Z,81.10
2017-09-25T21:42:22.651Z,81.10
2017-09-25T21:44:50.147Z,81.30
2017-09-25T21:47:18.408Z,81.80
2017-09-25T21:49:54.588Z,82.00
2017-09-25T21:52:22.839Z,82.00
2017-09-25T21:54:50.345Z,81.90
2017-09-25T21:57:17.835Z,82.10
2017-09-25T21:59:55.272Z,82.00
2017-09-25T22:02:25.234Z,81.90
2017-09-25T22:04:52.731Z,81.90
2017-09-25T22:07:20.983Z,81.80
2017-09-25T22:09:48.752Z,81.70
2017-09-25T22:12:25.955Z,82.10
2017-09-25T22:14:55.175Z,82.20
2017-09-25T22:17:22.662Z,82.30
2017-09-25T22:19:50.147Z,82.30
2017-09-25T22:22:24.462Z,82.60
2017-09-25T22:24:55.487Z,82.60
2017-09-25T22:27:22.986Z,83.30
2017-09-25T22:29:50.465Z,82.60
2017-09-25T22:32:19.057Z,82.80
2017-09-25T22:34:46.543Z,82.60
2017-09-25T22:37:14.844Z,82.80
2017-09-25T22:39:42.344Z,83.00
2017-09-25T22:42:16.410Z,83.00
2017-09-25T22:44:43.915Z,82.70
2017-09-25T22:47:12.159Z,82.80
2017-09-25T22:49:39.656Z,82.70
2017-09-25T22:52:07.900Z,83.00
2017-09-25T22:54:46.019Z,82.90
2017-09-25T22:57:14.283Z,84.00
2017-09-25T22:59:41.755Z,83.90
2017-09-25T23:02:10.015Z,84.50
2017-09-25T23:04:49.979Z,84.50
2017-09-25T23:07:18.238Z,84.60
2017-09-25T23:09:56.200Z,84.40
2017-09-25T23:12:24.036Z,84.60
2017-09-25T23:14:54.951Z,84.80
2017-09-25T23:17:25.912Z,84.90
2017-09-25T23:19:54.163Z,84.60
2017-09-25T23:22:21.654Z,84.50
2017-09-25T23:24:55.651Z,84.60
2017-09-25T23:27:23.899Z,84.30
2017-09-25T23:30:02.066Z,84.30
2017-09-25T23:32:29.550Z,84.30
2017-09-25T23:34:57.372Z,84.40
2017-09-25T23:37:35.102Z,84.60
2017-09-25T23:40:05.837Z,84.60
2017-09-25T23:42:33.328Z,84.60
2017-09-25T23:45:00.809Z,84.80
2017-09-25T23:47:35.650Z,84.80
2017-09-25T23:50:03.886Z,84.30
2017-09-25T23:52:31.384Z,84.20
2017-09-25T23:54:59.622Z,84.10
2017-09-25T23:57:34.522Z,84.00
